createdAt,value
2017-11-05T00:01:46.319Z,44.27
2017-11-05T00:04:12.582Z,43.93
2017-11-05T00:06:39.660Z,45.27
2017-11-05T00:09:05.887Z,50.23
2017-11-05T00:11:32.162Z,49.70
2017-11-05T00:13:58.408Z,49.10
2017-11-05T00:16:25.412Z,45.83
2017-11-05T00:18:51.647Z,48.00
2017-11-05T00:21:17.910Z,48.87
2017-11-05T00:23:44.153Z,46.40
2017-11-05T00:26:11.135Z,44.00
2017-11-05T00:28:37.423Z,45.20
2017-11-05T00:31:04.393Z,46.17
2017-11-05T00:33:30.735Z,54.83
2017-11-05T00:35:56.943Z,43.60
2017-11-05T00:38:23.183Z,50.37
2017-11-05T00:40:49.394Z,54.70
2017-11-05T00:43:15.677Z,43.87
2017-11-05T00:45:41.921Z,51.53
2017-11-05T00:48:08.207Z,52.17
2017-11-05T00:50:34.438Z,46.03
2017-11-05T00:53:00.715Z,47.97
2017-11-05T00:55:26.940Z,47.13
2017-11-05T00:57:53.952Z,60.20
2017-11-05T01:00:20.163Z,52.80
2017-11-05T01:02:46.445Z,51.17
2017-11-05T01:05:13.405Z,52.13
2017-11-05T01:07:39.688Z,52.63
2017-11-05T01:10:05.936Z,51.00
2017-11-05T01:12:32.948Z,54.13
2017-11-05T01:14:59.168Z,52.57
2017-11-05T01:17:25.391Z,56.03
2017-11-05T01:19:51.659Z,50.03
2017-11-05T01:22:17.877Z,50.17
2017-11-05T01:24:44.115Z,50.00
2017-11-05T01:27:10.382Z,51.80
2017-11-05T01:29:36.636Z,50.80
2017-11-05T01:32:02.888Z,57.83
2017-11-05T01:34:29.164Z,51.83
2017-11-05T01:36:55.424Z,54.23
2017-11-05T01:39:21.699Z,54.40
2017-11-05T01:41:47.919Z,42.43
2017-11-05T01:44:14.180Z,48.80
2017-11-05T01:46:41.140Z,55.43
2017-11-05T01:49:07.391Z,52.03
2017-11-05T01:51:33.693Z,54.43
2017-11-05T01:53:59.967Z,59.53
2017-11-05T01:56:26.202Z,53.80
2017-11-05T01:58:52.473Z,62.47
2017-11-05T02:01:18.706Z,53.30
2017-11-05T02:03:45.012Z,52.23
2017-11-05T02:06:11.972Z,62.37
2017-11-05T02:08:38.292Z,61.63
2017-11-05T02:11:04.638Z,58.70
2017-11-05T02:13:30.980Z,65.53
2017-11-05T02:15:57.232Z,62.27
2017-11-05T02:18:23.677Z,55.70
2017-11-05T02:20:49.979Z,58.63
2017-11-05T02:23:16.242Z,68.07
2017-11-05T02:25:42.638Z,54.70
2017-11-05T02:28:08.961Z,66.07
2017-11-05T02:30:35.257Z,55.90
2017-11-05T02:33:02.258Z,45.60
2017-11-05T02:35:28.570Z,55.10
2017-11-05T02:37:54.848Z,55.83
2017-11-05T02:40:21.104Z,53.57
2017-11-05T02:42:47.364Z,54.73
2017-11-05T02:45:13.707Z,51.63
2017-11-05T02:47:39.955Z,56.00
2017-11-05T02:50:06.246Z,50.57
2017-11-05T02:52:32.516Z,61.00
2017-11-05T02:54:58.767Z,59.37
2017-11-05T02:57:25.920Z,60.57
2017-11-05T02:59:52.932Z,55.53
2017-11-05T03:02:19.269Z,61.73
2017-11-05T03:04:45.638Z,49.17
2017-11-05T03:07:11.941Z,58.03
2017-11-05T03:09:39.026Z,63.40
2017-11-05T03:12:05.318Z,58.83
2017-11-05T03:14:32.343Z,58.53
2017-11-05T03:16:58.676Z,43.77
2017-11-05T03:19:24.950Z,56.33
2017-11-05T03:21:51.181Z,58.87
2017-11-05T03:24:17.450Z,55.03
2017-11-05T03:26:43.689Z,55.43
2017-11-05T03:29:10.040Z,60.33
2017-11-05T03:31:36.334Z,55.30
2017-11-05T03:34:02.572Z,51.70
2017-11-05T03:36:28.859Z,45.93
2017-11-05T03:38:55.159Z,52.10
2017-11-05T03:41:22.200Z,49.07
2017-11-05T03:43:49.187Z,54.87
2017-11-05T03:46:15.452Z,61.53
2017-11-05T03:48:41.690Z,57.13
2017-11-05T03:51:07.971Z,51.50
2017-11-05T03:53:34.948Z,46.17
2017-11-05T03:56:01.230Z,60.63
2017-11-05T03:58:27.491Z,60.60
2017-11-05T04:00:53.762Z,53.67
2017-11-05T04:03:20.887Z,62.90
2017-11-05T04:05:47.163Z,58.53
2017-11-05T04:08:13.451Z,55.73
2017-11-05T04:10:39.722Z,51.97
2017-11-05T04:13:06.084Z,59.53
2017-11-05T04:15:32.492Z,53.70
2017-11-05T04:17:58.743Z,51.80
2017-11-05T04:20:25.061Z,57.90
2017-11-05T04:22:51.308Z,54.50
2017-11-05T04:25:17.559Z,56.77
2017-11-05T04:27:43.858Z,58.20
2017-11-05T04:30:11.165Z,55.33
2017-11-05T04:32:37.453Z,58.83
2017-11-05T04:35:03.709Z,55.67
2017-11-05T04:37:30.033Z,55.10
2017-11-05T04:39:56.337Z,58.57
2017-11-05T04:42:22.638Z,63.47
2017-11-05T04:44:48.926Z,56.87
2017-11-05T04:47:15.177Z,56.63
2017-11-05T04:49:42.184Z,52.70
2017-11-05T04:52:09.302Z,55.00
2017-11-05T04:54:35.715Z,53.43
2017-11-05T04:57:02.056Z,59.40
2017-11-05T04:59:28.368Z,64.87
2017-11-05T05:01:54.657Z,61.50
2017-11-05T05:04:20.910Z,53.40
2017-11-05T05:06:47.947Z,57.10
2017-11-05T05:09:14.993Z,55.00
2017-11-05T05:11:42.089Z,60.03
2017-11-05T05:14:08.415Z,55.33
2017-11-05T05:16:34.687Z,52.70
2017-11-05T05:19:00.934Z,53.50
2017-11-05T05:21:27.955Z,59.27
2017-11-05T05:23:54.183Z,55.00
2017-11-05T05:26:20.467Z,52.67
2017-11-05T05:28:46.725Z,61.33
2017-11-05T05:31:13.019Z,60.87
2017-11-05T05:33:39.299Z,63.17
2017-11-05T05:36:06.331Z,55.23
2017-11-05T05:38:32.627Z,59.93
2017-11-05T05:40:58.881Z,57.00
2017-11-05T05:43:25.135Z,56.77
2017-11-05T05:45:51.471Z,58.50
2017-11-05T05:48:17.724Z,65.70
2017-11-05T05:50:44.743Z,52.90
2017-11-05T05:53:10.982Z,58.50
2017-11-05T05:55:37.545Z,58.27
2017-11-05T05:58:03.852Z,54.90
2017-11-05T06:00:30.903Z,57.20
2017-11-05T06:02:57.176Z,62.87
2017-11-05T06:05:23.463Z,57.73
2017-11-05T06:07:50.440Z,55.20
2017-11-05T06:10:16.682Z,60.77
2017-11-05T06:12:42.947Z,55.90
2017-11-05T06:15:09.204Z,59.27
2017-11-05T06:17:36.250Z,55.77
2017-11-05T06:20:02.550Z,60.17
2017-11-05T06:22:28.859Z,59.93
2017-11-05T06:24:55.111Z,63.17
2017-11-05T06:27:21.363Z,56.70
2017-11-05T06:29:48.334Z,60.27
2017-11-05T06:32:14.573Z,72.40
2017-11-05T06:34:40.802Z,58.77
2017-11-05T06:37:07.106Z,55.53
2017-11-05T06:39:33.346Z,59.57
2017-11-05T06:41:59.620Z,59.47
2017-11-05T06:44:25.872Z,54.67
2017-11-05T06:46:52.889Z,54.63
2017-11-05T06:49:19.158Z,55.40
2017-11-05T06:51:46.190Z,60.80
2017-11-05T06:54:12.479Z,62.60
2017-11-05T06:56:38.955Z,56.30
2017-11-05T06:59:05.961Z,63.00
2017-11-05T07:01:32.222Z,58.87
2017-11-05T07:03:58.503Z,61.40
2017-11-05T07:06:24.847Z,51.93
2017-11-05T07:08:51.164Z,55.80
2017-11-05T07:11:17.646Z,47.27
2017-11-05T07:13:44.655Z,47.43
2017-11-05T07:16:10.891Z,50.83
2017-11-05T07:18:37.144Z,50.20
2017-11-05T07:21:04.144Z,51.47
2017-11-05T07:23:30.430Z,46.93
2017-11-05T07:25:57.465Z,53.03
2017-11-05T07:28:23.767Z,48.67
2017-11-05T07:30:49.985Z,45.83
2017-11-05T07:33:16.265Z,53.03
2017-11-05T07:35:43.252Z,52.47
2017-11-05T07:38:09.500Z,49.20
2017-11-05T07:40:35.738Z,48.63
2017-11-05T07:43:02.172Z,50.80
2017-11-05T07:45:28.426Z,54.73
2017-11-05T07:47:55.481Z,51.00
2017-11-05T07:50:22.479Z,53.40
2017-11-05T07:52:48.780Z,48.10
2017-11-05T07:55:15.045Z,64.30
2017-11-05T07:57:41.329Z,53.20
2017-11-05T08:00:17.595Z,53.47
2017-11-05T08:02:43.876Z,55.73
2017-11-05T08:05:10.230Z,51.37
2017-11-05T08:07:37.289Z,47.63
2017-11-05T08:10:03.587Z,53.37
2017-11-05T08:12:30.002Z,51.67
2017-11-05T08:14:56.330Z,52.50
2017-11-05T08:17:22.627Z,49.50
2017-11-05T08:19:48.996Z,49.07
2017-11-05T08:22:15.273Z,44.87
2017-11-05T08:24:41.567Z,51.90
2017-11-05T08:27:08.597Z,52.97
2017-11-05T08:29:34.898Z,50.00
2017-11-05T08:32:01.189Z,66.40
2017-11-05T08:34:28.331Z,44.63
2017-11-05T08:36:55.416Z,53.70
2017-11-05T08:39:21.707Z,49.73
2017-11-05T08:41:48.098Z,55.80
2017-11-05T08:44:14.372Z,50.47
2017-11-05T08:46:41.376Z,50.90
2017-11-05T08:49:07.656Z,54.73
2017-11-05T08:51:34.626Z,50.40
2017-11-05T08:54:00.991Z,54.33
2017-11-05T08:56:27.258Z,52.27
2017-11-05T08:58:54.296Z,58.20
2017-11-05T09:01:21.873Z,52.77
2017-11-05T09:03:48.215Z,48.63
2017-11-05T09:06:14.530Z,50.47
2017-11-05T09:08:40.848Z,54.20
2017-11-05T09:11:07.988Z,54.07
2017-11-05T09:13:35.051Z,57.20
2017-11-05T09:16:01.334Z,53.67
2017-11-05T09:18:27.606Z,55.77
2017-11-05T09:20:54.771Z,55.87
2017-11-05T09:23:21.043Z,52.30
2017-11-05T09:25:47.296Z,57.73
2017-11-05T09:28:13.618Z,53.47
2017-11-05T09:30:39.872Z,57.10
2017-11-05T09:33:06.339Z,54.90
2017-11-05T09:35:33.749Z,56.27
2017-11-05T09:38:00.065Z,54.00
2017-11-05T09:40:26.334Z,52.07
2017-11-05T09:42:52.540Z,55.53
2017-11-05T09:45:19.596Z,60.13
2017-11-05T09:47:46.613Z,51.97
2017-11-05T09:50:13.880Z,56.03
2017-11-05T09:52:40.870Z,53.07
2017-11-05T09:55:07.151Z,56.87
2017-11-05T09:57:33.466Z,51.43
2017-11-05T10:00:00.011Z,56.77
2017-11-05T10:02:26.587Z,55.53
2017-11-05T10:04:52.848Z,50.87
2017-11-05T10:07:19.112Z,53.63
2017-11-05T10:09:46.182Z,52.10
2017-11-05T10:12:14.473Z,60.10
2017-11-05T10:14:40.731Z,56.80
2017-11-05T10:17:06.992Z,54.53
2017-11-05T10:19:34.063Z,56.07
2017-11-05T10:22:01.023Z,57.20
2017-11-05T10:24:27.413Z,58.30
2017-11-05T10:26:54.380Z,49.87
2017-11-05T10:29:21.359Z,53.20
2017-11-05T10:31:47.643Z,55.53
2017-11-05T10:34:14.638Z,56.60
2017-11-05T10:36:40.933Z,52.50
2017-11-05T10:39:07.229Z,50.60
2017-11-05T10:41:33.475Z,57.80
2017-11-05T10:44:00.455Z,47.50
2017-11-05T10:46:26.758Z,50.23
2017-11-05T10:48:53.030Z,64.77
2017-11-05T10:51:19.342Z,50.33
2017-11-05T10:53:45.840Z,53.97
2017-11-05T10:56:12.820Z,50.80
2017-11-05T10:58:39.026Z,53.00
2017-11-05T11:01:06.075Z,45.50
2017-11-05T11:03:33.191Z,48.07
2017-11-05T11:05:59.495Z,47.03
2017-11-05T11:08:25.831Z,46.60
2017-11-05T11:10:52.086Z,56.00
2017-11-05T11:13:18.327Z,45.17
2017-11-05T11:15:45.356Z,48.33
2017-11-05T11:18:11.656Z,53.07
2017-11-05T11:20:37.952Z,46.70
2017-11-05T11:23:04.194Z,57.00
2017-11-05T11:25:30.517Z,44.40
2017-11-05T11:27:56.758Z,42.20
2017-11-05T11:30:23.031Z,44.40
2017-11-05T11:32:49.319Z,44.83
2017-11-05T11:35:15.575Z,43.50
2017-11-05T11:37:41.812Z,46.73
2017-11-05T11:40:08.091Z,43.77
2017-11-05T11:42:34.443Z,47.80
2017-11-05T11:45:00.661Z,42.63
2017-11-05T11:47:26.941Z,42.80
2017-11-05T11:49:53.953Z,50.67
2017-11-05T11:52:20.233Z,41.67
2017-11-05T11:54:47.188Z,40.37
2017-11-05T11:57:13.503Z,40.83
2017-11-05T11:59:39.751Z,40.27
2017-11-05T12:02:06.026Z,41.50
2017-11-05T12:04:32.359Z,39.57
2017-11-05T12:06:58.672Z,38.23
2017-11-05T12:09:24.913Z,45.13
2017-11-05T12:11:51.315Z,42.33
2017-11-05T12:14:17.578Z,42.97
2017-11-05T12:16:43.859Z,41.07
2017-11-05T12:19:10.205Z,37.93
2017-11-05T12:21:36.500Z,38.10
2017-11-05T12:24:03.450Z,40.23
2017-11-05T12:26:30.357Z,45.00
2017-11-05T12:28:57.307Z,39.90
2017-11-05T12:31:24.330Z,41.53
2017-11-05T12:33:50.716Z,37.60
2017-11-05T12:36:17.761Z,49.10
2017-11-05T12:38:44.038Z,38.50
2017-11-05T12:41:10.358Z,35.30
2017-11-05T12:43:36.723Z,48.27
2017-11-05T12:46:03.709Z,39.87
2017-11-05T12:48:29.946Z,35.63
2017-11-05T12:50:56.565Z,39.57
2017-11-05T12:53:31.842Z,38.87
2017-11-05T12:55:58.195Z,33.47
2017-11-05T12:58:25.195Z,40.17
2017-11-05T13:00:52.126Z,36.33
2017-11-05T13:03:25.503Z,34.90
2017-11-05T13:05:53.484Z,43.37
2017-11-05T13:08:19.726Z,37.50
2017-11-05T13:10:46.043Z,36.03
2017-11-05T13:13:13.123Z,37.67
2017-11-05T13:15:39.902Z,33.93
2017-11-05T13:18:06.232Z,35.07
2017-11-05T13:20:32.618Z,34.07
2017-11-05T13:22:58.935Z,30.63
2017-11-05T13:25:25.226Z,36.33
2017-11-05T13:27:51.508Z,33.10
2017-11-05T13:30:17.803Z,32.93
2017-11-05T13:32:44.090Z,48.53
2017-11-05T13:35:10.319Z,40.63
2017-11-05T13:37:36.655Z,42.40
2017-11-05T13:40:02.947Z,40.13
2017-11-05T13:42:29.322Z,34.27
2017-11-05T13:44:55.590Z,35.70
2017-11-05T13:47:21.874Z,37.63
2017-11-05T13:49:48.142Z,34.50
2017-11-05T13:52:14.415Z,47.70
2017-11-05T13:54:40.665Z,37.83
2017-11-05T13:57:08.095Z,36.30
2017-11-05T13:59:35.231Z,33.40
2017-11-05T14:02:01.492Z,31.50
2017-11-05T14:04:27.758Z,42.37
2017-11-05T14:06:54.716Z,34.07
2017-11-05T14:09:21.733Z,39.77
2017-11-05T14:11:48.764Z,31.60
2017-11-05T14:14:15.036Z,32.73
2017-11-05T14:16:41.284Z,38.37
2017-11-05T14:19:07.639Z,36.40
2017-11-05T14:21:33.929Z,35.10
2017-11-05T14:24:00.214Z,40.07
2017-11-05T14:26:26.491Z,39.27
2017-11-05T14:28:58.534Z,39.03
2017-11-05T14:31:29.437Z,36.23
2017-11-05T14:33:59.195Z,41.13
2017-11-05T14:36:31.914Z,39.50
2017-11-05T14:39:00.213Z,37.10
2017-11-05T14:41:27.339Z,44.73
2017-11-05T14:43:57.500Z,53.10
2017-11-05T14:46:25.682Z,54.70
2017-11-05T14:48:56.404Z,40.97
2017-11-05T14:51:24.862Z,42.93
2017-11-05T14:53:51.117Z,48.03
2017-11-05T14:56:18.506Z,44.50
2017-11-05T14:58:46.972Z,44.50
2017-11-05T15:01:13.458Z,42.17
2017-11-05T15:03:39.686Z,40.00
2017-11-05T15:06:05.998Z,43.37
2017-11-05T15:08:34.543Z,49.40
2017-11-05T15:11:00.972Z,54.10
2017-11-05T15:13:41.978Z,48.70
2017-11-05T15:16:09.176Z,44.70
2017-11-05T15:18:36.185Z,49.70
2017-11-05T15:21:02.500Z,49.30
2017-11-05T15:23:28.741Z,50.03
2017-11-05T15:25:55.050Z,62.00
2017-11-05T15:28:21.337Z,73.43
2017-11-05T15:30:48.344Z,64.27
2017-11-05T15:33:14.616Z,64.10
2017-11-05T15:35:41.610Z,73.97
2017-11-05T15:38:07.897Z,77.57
2017-11-05T15:40:34.162Z,79.50
2017-11-05T15:43:00.454Z,88.60
2017-11-05T15:45:27.472Z,83.30
2017-11-05T15:47:53.756Z,88.23
2017-11-05T15:50:20.059Z,90.40
2017-11-05T15:52:47.031Z,91.27
2017-11-05T15:55:13.301Z,94.07
2017-11-05T15:57:39.564Z,91.33
2017-11-05T16:00:06.594Z,90.30
2017-11-05T16:02:32.845Z,97.43
2017-11-05T16:04:59.095Z,93.03
2017-11-05T16:07:25.310Z,95.77
2017-11-05T16:09:51.556Z,100.27
2017-11-05T16:12:17.778Z,90.83
2017-11-05T16:14:44.026Z,105.97
2017-11-05T16:17:10.581Z,88.23
2017-11-05T16:19:37.855Z,78.00
2017-11-05T16:22:04.818Z,75.60
2017-11-05T16:24:31.062Z,76.90
2017-11-05T16:26:57.277Z,70.77
2017-11-05T16:29:23.936Z,66.00
2017-11-05T16:31:50.854Z,59.17
2017-11-05T16:34:17.069Z,37.50
2017-11-05T16:36:44.086Z,35.17
2017-11-05T16:39:11.049Z,29.90
2017-11-05T16:41:38.015Z,22.80
2017-11-05T16:44:04.395Z,15.47
2017-11-05T16:46:31.442Z,11.13
2017-11-05T16:48:57.650Z,4.87
2017-11-05T16:51:23.913Z,8.73
2017-11-05T16:53:50.128Z,4.90
2017-11-05T16:56:16.375Z,3.63
2017-11-05T16:58:42.640Z,3.80
2017-11-05T17:01:09.018Z,2.80
2017-11-05T17:03:35.287Z,5.50
2017-11-05T17:06:02.355Z,2.93
2017-11-05T17:08:28.618Z,2.67
2017-11-05T17:10:55.678Z,2.20
2017-11-05T17:13:22.032Z,2.83
2017-11-05T17:15:48.284Z,2.70
2017-11-05T17:18:14.541Z,2.20
2017-11-05T17:20:40.840Z,2.63
2017-11-05T17:23:07.135Z,2.87
2017-11-05T17:25:33.382Z,3.07
2017-11-05T17:27:59.664Z,5.63
2017-11-05T17:30:25.901Z,2.70
2017-11-05T17:32:52.160Z,2.87
2017-11-05T17:35:19.162Z,2.80
2017-11-05T17:37:45.418Z,3.20
2017-11-05T17:40:11.639Z,3.87
2017-11-05T17:42:37.904Z,6.90
2017-11-05T17:45:04.177Z,4.80
2017-11-05T17:47:30.405Z,3.90
2017-11-05T17:49:56.673Z,5.30
2017-11-05T17:52:23.715Z,6.83
2017-11-05T17:54:50.034Z,5.17
2017-11-05T17:57:16.276Z,9.50
2017-11-05T17:59:43.258Z,6.97
2017-11-05T18:02:09.491Z,4.57
2017-11-05T18:04:35.751Z,4.00
2017-11-05T18:07:02.024Z,4.70
2017-11-05T18:09:28.310Z,10.00
2017-11-05T18:11:54.659Z,3.20
2017-11-05T18:14:20.920Z,6.33
2017-11-05T18:16:47.138Z,4.37
2017-11-05T18:19:13.451Z,6.70
2017-11-05T18:21:40.550Z,9.00
2017-11-05T18:24:07.054Z,12.97
2017-11-05T18:26:33.379Z,8.90
2017-11-05T18:28:59.630Z,9.67
2017-11-05T18:31:26.038Z,6.20
2017-11-05T18:33:52.279Z,7.07
2017-11-05T18:36:18.536Z,4.87
2017-11-05T18:38:44.770Z,9.27
2017-11-05T18:41:11.232Z,6.07
2017-11-05T18:43:37.518Z,4.10
2017-11-05T18:46:03.851Z,2.97
2017-11-05T18:48:30.188Z,8.40
2017-11-05T18:50:56.535Z,3.43
2017-11-05T18:53:22.842Z,5.27
2017-11-05T18:55:49.220Z,6.57
2017-11-05T18:58:16.320Z,3.77
2017-11-05T19:00:42.655Z,5.47
2017-11-05T19:03:09.084Z,5.87
2017-11-05T19:05:35.430Z,7.93
2017-11-05T19:08:01.807Z,10.60
2017-11-05T19:10:28.899Z,5.13
2017-11-05T19:12:55.281Z,11.83
2017-11-05T19:15:21.598Z,6.80
2017-11-05T19:17:48.057Z,10.80
2017-11-05T19:20:14.367Z,5.73
2017-11-05T19:22:41.415Z,7.37
2017-11-05T19:25:07.843Z,8.93
2017-11-05T19:27:34.849Z,6.17
2017-11-05T19:30:01.238Z,8.90
2017-11-05T19:32:27.521Z,13.60
2017-11-05T19:34:53.749Z,7.40
2017-11-05T19:37:20.049Z,5.43
2017-11-05T19:39:46.324Z,7.67
2017-11-05T19:42:12.666Z,7.80
2017-11-05T19:44:39.749Z,8.30
2017-11-05T19:47:06.002Z,10.43
2017-11-05T19:49:32.331Z,10.97
2017-11-05T19:51:58.549Z,6.80
2017-11-05T19:57:00.668Z,11.20
2017-11-05T19:59:27.141Z,10.40
2017-11-05T20:01:53.404Z,9.97
2017-11-05T20:04:23.563Z,9.83
2017-11-05T20:06:50.137Z,17.70
2017-11-05T20:09:16.473Z,10.27
2017-11-05T20:11:42.742Z,10.63
2017-11-05T20:14:09.036Z,8.93
2017-11-05T20:16:35.327Z,18.53
2017-11-05T20:19:02.288Z,13.43
2017-11-05T20:21:28.575Z,12.83
2017-11-05T20:23:54.791Z,19.73
2017-11-05T20:26:21.035Z,10.40
2017-11-05T20:28:48.379Z,11.33
2017-11-05T20:31:16.219Z,13.53
2017-11-05T20:33:42.457Z,15.70
2017-11-05T20:36:08.850Z,13.33
2017-11-05T20:38:36.442Z,22.77
2017-11-05T20:41:02.874Z,19.10
2017-11-05T20:43:29.219Z,27.03
2017-11-05T20:45:55.455Z,25.57
2017-11-05T20:48:23.196Z,22.20
2017-11-05T20:50:49.468Z,23.37
2017-11-05T20:53:20.427Z,24.73
2017-11-05T20:55:47.441Z,32.33
2017-11-05T20:58:14.795Z,29.70
2017-11-05T21:00:41.166Z,21.40
2017-11-05T21:03:09.123Z,27.13
2017-11-05T21:05:35.565Z,28.93
2017-11-05T21:08:01.815Z,25.33
2017-11-05T21:10:28.078Z,26.27
2017-11-05T21:12:54.354Z,28.97
2017-11-05T21:15:20.594Z,27.20
2017-11-05T21:17:47.057Z,33.77
2017-11-05T21:20:14.588Z,23.63
2017-11-05T21:22:40.940Z,29.00
2017-11-05T21:25:07.160Z,27.40
2017-11-05T21:27:33.460Z,32.20
2017-11-05T21:29:59.780Z,30.57
2017-11-05T21:32:26.212Z,28.27
2017-11-05T21:34:53.228Z,28.00
2017-11-05T21:37:19.569Z,30.23
2017-11-05T21:39:46.823Z,31.10
2017-11-05T21:42:13.945Z,30.37
2017-11-05T21:44:40.289Z,28.70
2017-11-05T21:47:16.820Z,35.40
2017-11-05T21:49:43.655Z,27.90
2017-11-05T21:52:14.749Z,30.90
2017-11-05T21:54:42.726Z,34.13
2017-11-05T21:57:09.801Z,31.80
2017-11-05T21:59:36.167Z,29.50
2017-11-05T22:02:02.443Z,43.80
2017-11-05T22:04:29.693Z,31.20
2017-11-05T22:06:56.754Z,37.53
2017-11-05T22:09:24.563Z,40.10
2017-11-05T22:11:51.320Z,40.23
2017-11-05T22:14:18.353Z,41.87
2017-11-05T22:16:54.739Z,49.20
2017-11-05T22:19:22.332Z,40.73
2017-11-05T22:21:52.757Z,38.30
2017-11-05T22:24:22.960Z,33.20
2017-11-05T22:26:51.950Z,40.43
2017-11-05T22:29:19.725Z,33.00
2017-11-05T22:31:47.080Z,27.50
2017-11-05T22:34:13.531Z,28.93
2017-11-05T22:36:39.883Z,29.57
2017-11-05T22:39:07.203Z,29.67
2017-11-05T22:41:33.491Z,33.30
2017-11-05T22:44:00.722Z,24.27
2017-11-05T22:46:30.609Z,31.37
2017-11-05T22:48:57.050Z,23.73
2017-11-05T22:51:23.313Z,23.17
2017-11-05T22:53:51.344Z,36.30
2017-11-05T22:56:21.778Z,28.20
2017-11-05T22:58:48.037Z,36.40
2017-11-05T23:01:14.586Z,30.60
2017-11-05T23:03:40.883Z,27.80
2017-11-05T23:06:07.147Z,30.83
2017-11-05T23:08:34.458Z,19.27
2017-11-05T23:11:00.767Z,26.03
2017-11-05T23:13:27.030Z,30.20
2017-11-05T23:15:53.318Z,26.30
2017-11-05T23:18:20.351Z,31.50
2017-11-05T23:20:46.821Z,20.57
2017-11-05T23:23:13.232Z,19.23
2017-11-05T23:25:39.679Z,22.33
2017-11-05T23:28:06.147Z,21.47
2017-11-05T23:30:32.672Z,29.50
2017-11-05T23:32:59.252Z,28.37
2017-11-05T23:35:25.774Z,21.73
2017-11-05T23:37:52.907Z,19.10
2017-11-05T23:40:19.413Z,23.83
2017-11-05T23:42:45.904Z,23.50
2017-11-05T23:45:12.759Z,26.00
2017-11-05T23:47:40.430Z,28.73
2017-11-05T23:50:07.037Z,25.40
2017-11-05T23:52:33.512Z,23.37
2017-11-05T23:55:00.147Z,30.87
2017-11-05T23:57:26.583Z,26.27
2017-11-05T23:59:53.000Z,26.70
